Time;durP1;ratioP1;P1;durP2;ratioP2;P2;SDS_P1;SDS_P2;PMS_P1;PMS_P2;Temp;Humidity;BMP_temperature;BMP_pressure;BME280_temperature;BME280_humidity;BME280_pressure;Samples;Min_cycle;Max_cycle;Signal;HPM_P1;HPM_P2
2023/07/16 00:01:52;;;;;;;;;;;;;;;;;;5014952;28;19925;-62
2023/07/16 00:04:17;;;;;;;;;;;;;;;;;;5014753;28;19967;-62
2023/07/16 00:06:43;;;;;;;;;;;;;;;;;;5014831;28;19929;-62
2023/07/16 00:09:09;;;;;;;;;;;;;;;;;;5014529;28;19929;-62
2023/07/16 00:11:35;;;;;;;;;;;;;;;;;;5014681;28;19997;-62
2023/07/16 00:14:01;;;;;;;;;;;;;;;;;;5014748;28;20004;-62
2023/07/16 00:16:27;;;;;;;;;;;;;;;;;;5014749;28;19933;-62
2023/07/16 00:18:53;;;;;;;;;;;;;;;;;;5014601;28;19933;-62
2023/07/16 00:21:19;;;;;;;;;;;;;;;;;;5014241;28;19926;-62
2023/07/16 00:23:45;;;;;;;;;;;;;;;;;;5014405;28;20012;-62
2023/07/16 00:26:11;;;;;;;;;;;;;;;;;;5014694;28;20020;-61
2023/07/16 00:28:37;;;;;;;;;;;;;;;;;;5013080;28;19922;-62
2023/07/16 00:31:03;;;;;;;;;;;;;;;;;;5029606;28;19925;-61
2023/07/16 00:33:29;;;;;;;;;;;;;;;;;;5014248;28;20405;-62
2023/07/16 00:35:55;;;;;;;;;;;;;;;;;;5014045;28;19922;-62
2023/07/16 00:38:21;;;;;;;;;;;;;;;;;;5014218;28;19931;-62
2023/07/16 00:40:47;;;;;;;;;;;;;;;;;;5014052;28;19922;-62
2023/07/16 00:43:13;;;;;;;;;;;;;;;;;;5014179;28;19926;-62
2023/07/16 00:45:39;;;;;;;;;;;;;;;;;;5013848;28;19976;-62
2023/07/16 00:48:05;;;;;;;;;;;;;;;;;;5014044;28;19961;-62
2023/07/16 00:50:33;;;;;;;;;;;;;;;;;;5013968;28;19968;-62
2023/07/16 00:52:59;;;;;;;;;;;;;;;;;;5013187;28;19926;-62
2023/07/16 00:55:25;;;;;;;;;;;;;;;;;;5013404;28;19925;-62
2023/07/16 00:57:51;;;;;;;;;;;;;;;;;;5013925;28;19926;-62
2023/07/16 01:00:17;;;;;;;;;;;;;;;;;;5013787;28;19975;-62
2023/07/16 01:02:43;;;;;;;;;;;;;;;;;;5013811;28;19921;-62
2023/07/16 01:05:09;;;;;;;;;;;;;;;;;;5013707;28;19926;-62
2023/07/16 01:07:35;;;;;;;;;;;;;;;;;;5013533;28;20323;-62
2023/07/16 01:10:01;;;;;;;;;;;;;;;;;;5013577;28;19967;-62
2023/07/16 01:12:27;;;;;;;;;;;;;;;;;;5013729;28;19933;-62
2023/07/16 01:14:53;;;;;;;;;;;;;;;;;;5013640;28;19925;-62
2023/07/16 01:17:19;;;;;;;;;;;;;;;;;;5013552;28;20302;-62
2023/07/16 01:19:45;;;;;;;;;;;;;;;;;;5013285;28;19977;-62
2023/07/16 01:22:11;;;;;;;;;;;;;;;;;;5002667;28;20013;-62
2023/07/16 01:24:37;;;;;;;;;;;;;;;;;;4991457;28;19932;-62
2023/07/16 01:27:02;;;;;;;;;;;;;;;;;;4993306;28;19923;-62
2023/07/16 01:29:29;;;;;;;;;;;;;;;;;;4992955;28;19922;-62
2023/07/16 01:31:55;;;;;;;;;;;;;;;;;;4992768;28;19925;-62
2023/07/16 01:34:21;;;;;;;;;;;;;;;;;;4993521;28;19922;-62
2023/07/16 01:36:47;;;;;;;;;;;;;;;;;;4993272;28;19949;-62
2023/07/16 01:39:13;;;;;;;;;;;;;;;;;;4993657;28;19934;-62
2023/07/16 01:41:38;;;;;;;;;;;;;;;;;;4993491;28;19925;-62
2023/07/16 01:44:04;;;;;;;;;;;;;;;;;;4993419;28;19969;-62
2023/07/16 01:46:30;;;;;;;;;;;;;;;;;;4993350;28;20001;-62
2023/07/16 01:48:56;;;;;;;;;;;;;;;;;;4993357;28;19952;-62
2023/07/16 01:51:22;;;;;;;;;;;;;;;;;;4993103;28;19925;-62
2023/07/16 01:53:48;;;;;;;;;;;;;;;;;;4993382;28;19984;-62
2023/07/16 01:56:14;;;;;;;;;;;;;;;;;;4993107;28;19928;-62
2023/07/16 01:58:40;;;;;;;;;;;;;;;;;;4993307;28;20394;-62
2023/07/16 02:01:06;;;;;;;;;;;;;;;;;;4993119;28;19926;-62
2023/07/16 02:03:31;;;;;;;;;;;;;;;;;;4992914;28;20283;-62
2023/07/16 02:05:57;;;;;;;;;;;;;;;;;;4992851;28;20240;-62
2023/07/16 02:08:23;;;;;;;;;;;;;;;;;;4993065;28;19933;-62
2023/07/16 02:10:49;;;;;;;;;;;;;;;;;;4992896;28;19981;-62
2023/07/16 02:13:15;;;;;;;;;;;;;;;;;;4992968;28;19921;-62
2023/07/16 02:15:41;;;;;;;;;;;;;;;;;;4991440;28;20295;-62
2023/07/16 02:18:07;;;;;;;;;;;;;;;;;;4992859;28;20363;-62
2023/07/16 02:20:33;;;;;;;;;;;;;;;;;;4992604;28;19929;-62
2023/07/16 02:22:59;;;;;;;;;;;;;;;;;;4991262;28;19922;-62
2023/07/16 02:25:25;;;;;;;;;;;;;;;;;;4992997;28;19926;-62
2023/07/16 02:27:51;;;;;;;;;;;;;;;;;;4992731;28;20464;-62
2023/07/16 02:30:17;;;;;;;;;;;;;;;;;;4992817;28;19921;-62
2023/07/16 02:32:43;;;;;;;;;;;;;;;;;;4992587;28;19922;-62
2023/07/16 02:35:09;;;;;;;;;;;;;;;;;;4992586;28;20410;-62
2023/07/16 02:37:34;;;;;;;;;;;;;;;;;;4992581;28;19933;-62
2023/07/16 02:40:00;;;;;;;;;;;;;;;;;;4992623;28;19926;-62
2023/07/16 02:42:26;;;;;;;;;;;;;;;;;;4992583;28;19969;-62
2023/07/16 02:44:52;;;;;;;;;;;;;;;;;;4992620;28;19930;-62
2023/07/16 02:47:18;;;;;;;;;;;;;;;;;;4992464;28;19933;-62
2023/07/16 02:49:44;;;;;;;;;;;;;;;;;;4992477;28;19968;-62
2023/07/16 02:52:10;;;;;;;;;;;;;;;;;;4992637;28;19926;-62
2023/07/16 02:54:36;;;;;;;;;;;;;;;;;;4992622;28;19953;-62
2023/07/16 02:57:02;;;;;;;;;;;;;;;;;;4992419;28;19932;-62
2023/07/16 02:59:28;;;;;;;;;;;;;;;;;;4992509;28;19926;-62
2023/07/16 03:01:54;;;;;;;;;;;;;;;;;;4992301;28;19922;-63
2023/07/16 03:04:20;;;;;;;;;;;;;;;;;;4992337;28;20001;-62
2023/07/16 03:06:46;;;;;;;;;;;;;;;;;;4992456;28;19930;-62
2023/07/16 03:09:11;;;;;;;;;;;;;;;;;;4991060;28;20279;-62
2023/07/16 03:11:37;;;;;;;;;;;;;;;;;;4992341;28;20610;-62
2023/07/16 03:14:03;;;;;;;;;;;;;;;;;;4992325;28;19922;-62
2023/07/16 03:16:29;;;;;;;;;;;;;;;;;;4995670;28;19953;-62
2023/07/16 03:18:55;;;;;;;;;;;;;;;;;;5011232;28;20016;-62
2023/07/16 03:21:21;;;;;;;;;;;;;;;;;;4994637;28;19928;-62
2023/07/16 03:23:47;;;;;;;;;;;;;;;;;;4995518;28;19926;-62
2023/07/16 03:26:13;;;;;;;;;;;;;;;;;;4995135;28;19933;-62
2023/07/16 03:28:38;;;;;;;;;;;;;;;;;;4995063;28;20380;-62
2023/07/16 03:31:04;;;;;;;;;;;;;;;;;;4994885;28;19968;-62
2023/07/16 03:33:30;;;;;;;;;;;;;;;;;;4995224;28;20061;-62
2023/07/16 03:35:56;;;;;;;;;;;;;;;;;;4993752;28;19929;-62
2023/07/16 03:38:22;;;;;;;;;;;;;;;;;;4994695;28;20000;-62
2023/07/16 03:40:48;;;;;;;;;;;;;;;;;;4994878;28;19922;-62
2023/07/16 03:43:14;;;;;;;;;;;;;;;;;;4995438;28;19967;-62
2023/07/16 03:45:40;;;;;;;;;;;;;;;;;;4995548;28;20488;-62
2023/07/16 03:48:06;;;;;;;;;;;;;;;;;;4995303;28;19926;-62
2023/07/16 03:50:31;;;;;;;;;;;;;;;;;;4995718;28;19992;-62
2023/07/16 03:52:57;;;;;;;;;;;;;;;;;;4995449;28;19929;-62
2023/07/16 03:55:23;;;;;;;;;;;;;;;;;;4995381;28;19960;-62
2023/07/16 03:57:49;;;;;;;;;;;;;;;;;;4995342;28;19934;-62
2023/07/16 04:00:15;;;;;;;;;;;;;;;;;;4995178;28;19972;-62
2023/07/16 04:02:41;;;;;;;;;;;;;;;;;;4995081;28;19921;-62
2023/07/16 04:05:07;;;;;;;;;;;;;;;;;;4995307;28;19922;-62
2023/07/16 04:07:33;;;;;;;;;;;;;;;;;;4995050;28;19930;-62
2023/07/16 04:09:59;;;;;;;;;;;;;;;;;;4995243;28;19922;-62
2023/07/16 04:12:25;;;;;;;;;;;;;;;;;;4995004;28;19928;-62
2023/07/16 04:14:50;;;;;;;;;;;;;;;;;;4995022;28;20574;-62
2023/07/16 04:17:16;;;;;;;;;;;;;;;;;;5009936;28;19973;-62
2023/07/16 04:19:42;;;;;;;;;;;;;;;;;;4994762;28;19926;-62
2023/07/16 04:22:08;;;;;;;;;;;;;;;;;;4994806;28;19922;-62
2023/07/16 04:24:34;;;;;;;;;;;;;;;;;;4994890;28;20002;-62
2023/07/16 04:27:00;;;;;;;;;;;;;;;;;;4993559;28;20407;-62
2023/07/16 04:29:26;;;;;;;;;;;;;;;;;;4994676;28;19961;-62
2023/07/16 04:31:52;;;;;;;;;;;;;;;;;;4994544;28;19968;-62
2023/07/16 04:34:18;;;;;;;;;;;;;;;;;;4994741;28;19928;-62
2023/07/16 04:36:44;;;;;;;;;;;;;;;;;;4994695;28;19929;-62
2023/07/16 04:39:09;;;;;;;;;;;;;;;;;;4994582;28;19929;-62
2023/07/16 04:41:35;;;;;;;;;;;;;;;;;;4994557;28;20413;-62
2023/07/16 04:44:01;;;;;;;;;;;;;;;;;;4994318;28;19922;-62
2023/07/16 04:46:27;;;;;;;;;;;;;;;;;;4994418;28;20012;-62
2023/07/16 04:48:53;;;;;;;;;;;;;;;;;;4994431;28;19998;-62
2023/07/16 04:51:19;;;;;;;;;;;;;;;;;;4994497;28;19921;-62
2023/07/16 04:53:45;;;;;;;;;;;;;;;;;;4994312;28;19995;-62
2023/07/16 04:56:12;;;;;;;;;;;;;;;;;;4994072;28;19926;-62
2023/07/16 04:58:38;;;;;;;;;;;;;;;;;;4994099;28;19933;-62
2023/07/16 05:01:04;;;;;;;;;;;;;;;;;;4994111;28;19922;-63
2023/07/16 05:03:29;;;;;;;;;;;;;;;;;;4994151;28;19936;-63
2023/07/16 05:05:55;;;;;;;;;;;;;;;;;;4994170;28;19922;-62
2023/07/16 05:08:21;;;;;;;;;;;;;;;;;;4993948;28;19922;-62
2023/07/16 05:10:47;;;;;;;;;;;;;;;;;;4993963;28;20600;-62
2023/07/16 05:13:15;;;;;;;;;;;;;;;;;;4993953;28;19930;-62
2023/07/16 05:15:41;;;;;;;;;;;;;;;;;;4992304;28;19925;-62
2023/07/16 05:18:06;;;;;;;;;;;;;;;;;;4993772;28;19936;-62
2023/07/16 05:20:32;;;;;;;;;;;;;;;;;;4993003;28;19925;-62
2023/07/16 05:22:58;;;;;;;;;;;;;;;;;;4992866;28;19921;-62
2023/07/16 05:25:24;;;;;;;;;;;;;;;;;;4993239;28;20613;-62
2023/07/16 05:27:50;;;;;;;;;;;;;;;;;;4996855;28;20472;-62
2023/07/16 05:30:16;;;;;;;;;;;;;;;;;;5012449;28;19922;-62
2023/07/16 05:32:42;;;;;;;;;;;;;;;;;;5012630;28;20012;-62
2023/07/16 05:35:08;;;;;;;;;;;;;;;;;;5012358;28;19932;-62
2023/07/16 05:37:34;;;;;;;;;;;;;;;;;;5012394;28;19926;-62
2023/07/16 05:39:59;;;;;;;;;;;;;;;;;;5012905;28;19936;-63
2023/07/16 05:42:25;;;;;;;;;;;;;;;;;;5012870;28;19921;-62
2023/07/16 05:44:51;;;;;;;;;;;;;;;;;;5012575;28;20012;-63
2023/07/16 05:47:17;;;;;;;;;;;;;;;;;;5012876;28;20464;-62
2023/07/16 05:49:43;;;;;;;;;;;;;;;;;;5012867;28;19928;-62
2023/07/16 05:52:09;;;;;;;;;;;;;;;;;;5012656;28;19929;-62
2023/07/16 05:54:35;;;;;;;;;;;;;;;;;;5011271;28;19921;-62
2023/07/16 05:57:01;;;;;;;;;;;;;;;;;;5011157;28;20314;-63
2023/07/16 05:59:27;;;;;;;;;;;;;;;;;;5012704;28;19926;-63
2023/07/16 06:01:53;;;;;;;;;;;;;;;;;;5012798;28;19928;-63
2023/07/16 06:04:18;;;;;;;;;;;;;;;;;;5012445;28;19922;-63
2023/07/16 06:06:44;;;;;;;;;;;;;;;;;;5012598;28;19925;-63
2023/07/16 06:09:10;;;;;;;;;;;;;;;;;;5012498;28;19921;-63
2023/07/16 06:11:36;;;;;;;;;;;;;;;;;;5012354;28;19921;-63
2023/07/16 06:14:02;;;;;;;;;;;;;;;;;;5012355;28;19926;-63
2023/07/16 06:16:28;;;;;;;;;;;;;;;;;;5012196;28;19925;-63
2023/07/16 06:18:54;;;;;;;;;;;;;;;;;;5011021;28;19957;-63
2023/07/16 06:21:20;;;;;;;;;;;;;;;;;;5012112;28;20016;-63
2023/07/16 06:23:46;;;;;;;;;;;;;;;;;;5012252;28;19925;-63
2023/07/16 06:26:11;;;;;;;;;;;;;;;;;;5012125;28;19925;-63
2023/07/16 06:28:37;;;;;;;;;;;;;;;;;;5012269;28;19926;-63
2023/07/16 06:31:03;;;;;;;;;;;;;;;;;;5012137;28;19929;-63
2023/07/16 06:33:29;;;;;;;;;;;;;;;;;;5012266;28;19968;-63
2023/07/16 06:35:55;;;;;;;;;;;;;;;;;;5011978;28;20415;-63
2023/07/16 06:38:21;;;;;;;;;;;;;;;;;;5012156;28;19929;-62
2023/07/16 06:40:48;;;;;;;;;;;;;;;;;;5012007;28;19984;-63
2023/07/16 06:43:14;;;;;;;;;;;;;;;;;;5012032;28;20019;-63
2023/07/16 06:45:39;;;;;;;;;;;;;;;;;;5012095;28;20434;-63
2023/07/16 06:48:05;;;;;;;;;;;;;;;;;;5012137;28;19922;-63
2023/07/16 06:50:31;;;;;;;;;;;;;;;;;;5014242;28;20004;-63
2023/07/16 06:52:57;;;;;;;;;;;;;;;;;;5015969;28;20016;-63
2023/07/16 06:55:23;;;;;;;;;;;;;;;;;;5015822;28;19926;-63
2023/07/16 06:57:49;;;;;;;;;;;;;;;;;;5016067;28;19926;-63
2023/07/16 07:00:15;;;;;;;;;;;;;;;;;;5016012;28;19948;-62
2023/07/16 07:02:41;;;;;;;;;;;;;;;;;;5015965;28;19972;-63
2023/07/16 07:05:07;;;;;;;;;;;;;;;;;;5016010;28;20004;-63
2023/07/16 07:07:33;;;;;;;;;;;;;;;;;;5015695;28;20013;-63
2023/07/16 07:09:59;;;;;;;;;;;;;;;;;;5015708;28;20004;-63
2023/07/16 07:12:25;;;;;;;;;;;;;;;;;;5015806;28;20350;-63
2023/07/16 07:14:51;;;;;;;;;;;;;;;;;;5015860;28;20012;-62
2023/07/16 07:17:16;;;;;;;;;;;;;;;;;;5015601;28;19928;-63
2023/07/16 07:19:42;;;;;;;;;;;;;;;;;;5014867;28;20371;-63
2023/07/16 07:22:08;;;;;;;;;;;;;;;;;;5014502;28;19925;-63
2023/07/16 07:24:34;;;;;;;;;;;;;;;;;;5014971;28;20595;-63
2023/07/16 07:27:00;;;;;;;;;;;;;;;;;;5014734;28;19925;-62
2023/07/16 07:29:26;;;;;;;;;;;;;;;;;;5014912;28;19984;-62
2023/07/16 07:31:52;;;;;;;;;;;;;;;;;;5013641;28;19925;-63
2023/07/16 07:34:18;;;;;;;;;;;;;;;;;;5015335;28;19925;-63
2023/07/16 07:36:44;;;;;;;;;;;;;;;;;;5009212;28;19921;-62
2023/07/16 07:39:09;;;;;;;;;;;;;;;;;;4995539;28;19930;-62
2023/07/16 07:41:35;;;;;;;;;;;;;;;;;;4995752;28;19925;-63
2023/07/16 07:44:01;;;;;;;;;;;;;;;;;;4995617;28;20008;-62
2023/07/16 07:46:27;;;;;;;;;;;;;;;;;;4995487;28;19922;-63
2023/07/16 07:48:53;;;;;;;;;;;;;;;;;;4995400;28;19951;-62
2023/07/16 07:51:19;;;;;;;;;;;;;;;;;;4995390;28;19937;-62
2023/07/16 07:53:45;;;;;;;;;;;;;;;;;;4995303;28;19922;-62
2023/07/16 07:56:11;;;;;;;;;;;;;;;;;;4995288;28;20257;-63
2023/07/16 07:58:37;;;;;;;;;;;;;;;;;;4995378;28;19925;-63
2023/07/16 08:01:03;;;;;;;;;;;;;;;;;;4994831;28;19949;-62
2023/07/16 08:03:29;;;;;;;;;;;;;;;;;;4995049;28;19972;-63
2023/07/16 08:05:55;;;;;;;;;;;;;;;;;;4995136;28;19921;-62
2023/07/16 08:08:21;;;;;;;;;;;;;;;;;;5010028;28;19929;-63
2023/07/16 08:10:48;;;;;;;;;;;;;;;;;;4994504;28;21312;-63
2023/07/16 08:13:14;;;;;;;;;;;;;;;;;;4994858;28;20033;-63
2023/07/16 08:15:40;;;;;;;;;;;;;;;;;;4995004;28;20415;-63
2023/07/16 08:18:06;;;;;;;;;;;;;;;;;;4994671;28;19928;-62
2023/07/16 08:20:32;;;;;;;;;;;;;;;;;;4994739;28;20320;-62
2023/07/16 08:22:58;;;;;;;;;;;;;;;;;;4994349;28;19957;-62
2023/07/16 08:25:24;;;;;;;;;;;;;;;;;;4994684;28;19944;-63
2023/07/16 08:27:50;;;;;;;;;;;;;;;;;;4994556;28;19979;-62
2023/07/16 08:30:16;;;;;;;;;;;;;;;;;;4994793;28;19929;-63
2023/07/16 08:32:41;;;;;;;;;;;;;;;;;;4993181;28;20068;-62
2023/07/16 08:35:11;;;;;;;;;;;;;;;;;;4994544;28;19925;-63
2023/07/16 08:37:37;;;;;;;;;;;;;;;;;;5012345;22;19925;-65
2023/07/16 08:40:03;;;;;;;;;;;;;;;;;;5013782;28;19999;-65
2023/07/16 08:42:29;;;;;;;;;;;;;;;;;;5013873;28;19926;-65
2023/07/16 08:44:55;;;;;;;;;;;;;;;;;;5013820;28;19928;-65
2023/07/16 08:47:21;;;;;;;;;;;;;;;;;;5012136;28;19972;-65
2023/07/16 08:49:47;;;;;;;;;;;;;;;;;;5013049;28;19925;-65
2023/07/16 08:52:13;;;;;;;;;;;;;;;;;;5011510;28;20399;-66
2023/07/16 08:54:39;;;;;;;;;;;;;;;;;;5013485;28;19921;-65
2023/07/16 08:57:05;;;;;;;;;;;;;;;;;;5012958;28;20275;-65
2023/07/16 08:59:30;;;;;;;;;;;;;;;;;;5013006;28;19933;-66
2023/07/16 09:01:57;;;;;;;;;;;;;;;;;;5013660;28;19933;-65
2023/07/16 09:04:23;;;;;;;;;;;;;;;;;;5013482;28;19922;-66
2023/07/16 09:06:49;;;;;;;;;;;;;;;;;;5013479;28;20035;-65
2023/07/16 09:09:15;;;;;;;;;;;;;;;;;;5013474;28;19926;-65
2023/07/16 09:11:41;;;;;;;;;;;;;;;;;;5013242;28;20598;-65
2023/07/16 09:14:07;;;;;;;;;;;;;;;;;;5012806;28;19921;-65
2023/07/16 09:16:33;;;;;;;;;;;;;;;;;;5012094;28;20363;-65
2023/07/16 09:18:58;;;;;;;;;;;;;;;;;;5013323;28;19937;-65
2023/07/16 09:21:26;;;;;;;;;;;;;;;;;;5013129;28;19921;-65
2023/07/16 09:23:52;;;;;;;;;;;;;;;;;;5011942;28;19921;-65
2023/07/16 09:26:18;;;;;;;;;;;;;;;;;;5013348;28;19975;-65
2023/07/16 09:28:44;;;;;;;;;;;;;;;;;;5013177;28;20448;-65
2023/07/16 09:31:12;;;;;;;;;;;;;;;;;;5013122;28;19932;-65
2023/07/16 09:33:37;;;;;;;;;;;;;;;;;;5012919;28;19925;-65
2023/07/16 09:36:03;;;;;;;;;;;;;;;;;;5012939;28;19926;-65
2023/07/16 09:38:29;;;;;;;;;;;;;;;;;;5012754;28;19932;-64
2023/07/16 09:40:55;;;;;;;;;;;;;;;;;;5013105;28;20375;-65
2023/07/16 09:43:21;;;;;;;;;;;;;;;;;;5012888;28;20025;-65
2023/07/16 09:45:47;;;;;;;;;;;;;;;;;;5012691;28;20007;-65
2023/07/16 09:48:13;;;;;;;;;;;;;;;;;;5012638;28;20012;-65
2023/07/16 09:50:39;;;;;;;;;;;;;;;;;;5012951;28;19921;-65
2023/07/16 09:53:07;;;;;;;;;;;;;;;;;;5012705;28;19925;-65
2023/07/16 09:55:36;;;;;;;;;;;;;;;;;;5012658;28;19932;-65
2023/07/16 09:58:02;;;;;;;;;;;;;;;;;;4994972;28;19925;-65
2023/07/16 10:00:28;;;;;;;;;;;;;;;;;;5012571;28;19928;-65
2023/07/16 10:02:53;;;;;;;;;;;;;;;;;;5012475;28;19922;-65
2023/07/16 10:05:19;;;;;;;;;;;;;;;;;;5012702;28;19983;-65
2023/07/16 10:07:45;;;;;;;;;;;;;;;;;;5012411;28;19925;-65
2023/07/16 10:10:11;;;;;;;;;;;;;;;;;;5012530;28;19929;-65
2023/07/16 10:12:37;;;;;;;;;;;;;;;;;;5011270;28;19928;-65
2023/07/16 10:15:04;;;;;;;;;;;;;;;;;;5012408;28;19925;-65
2023/07/16 10:17:29;;;;;;;;;;;;;;;;;;5012334;28;19929;-65
2023/07/16 10:19:56;;;;;;;;;;;;;;;;;;5012435;28;19928;-65
2023/07/16 10:22:22;;;;;;;;;;;;;;;;;;5012380;28;20000;-65
2023/07/16 10:24:48;;;;;;;;;;;;;;;;;;5012217;28;19925;-65
2023/07/16 10:27:14;;;;;;;;;;;;;;;;;;5012352;28;20390;-65
2023/07/16 10:29:40;;;;;;;;;;;;;;;;;;5012197;28;20362;-65
2023/07/16 10:32:07;;;;;;;;;;;;;;;;;;5012176;28;19925;-65
2023/07/16 10:34:33;;;;;;;;;;;;;;;;;;5012338;28;19991;-65
2023/07/16 10:36:59;;;;;;;;;;;;;;;;;;5012015;28;20402;-65
2023/07/16 10:39:25;;;;;;;;;;;;;;;;;;5012207;28;19932;-65
2023/07/16 10:41:51;;;;;;;;;;;;;;;;;;5012026;28;20373;-64
2023/07/16 10:44:17;;;;;;;;;;;;;;;;;;5012065;28;20011;-65
2023/07/16 10:46:42;;;;;;;;;;;;;;;;;;5012006;28;19928;-65
2023/07/16 10:49:08;;;;;;;;;;;;;;;;;;5011963;28;20367;-65
2023/07/16 10:51:35;;;;;;;;;;;;;;;;;;5012129;28;19921;-65
2023/07/16 10:54:05;;;;;;;;;;;;;;;;;;5010277;28;19963;-65
2023/07/16 10:56:30;;;;;;;;;;;;;;;;;;5011033;28;19929;-65
2023/07/16 10:58:56;;;;;;;;;;;;;;;;;;5011131;28;19922;-65
2023/07/16 11:01:22;;;;;;;;;;;;;;;;;;5011743;28;19948;-66
2023/07/16 11:03:48;;;;;;;;;;;;;;;;;;5011972;28;19925;-65
2023/07/16 11:06:15;;;;;;;;;;;;;;;;;;5012016;28;20287;-65
2023/07/16 11:08:41;;;;;;;;;;;;;;;;;;5011945;28;19925;-65
2023/07/16 11:11:07;;;;;;;;;;;;;;;;;;5011754;28;20283;-65
2023/07/16 11:13:33;;;;;;;;;;;;;;;;;;5011872;28;19921;-65
2023/07/16 11:15:59;;;;;;;;;;;;;;;;;;5011550;28;19972;-65
2023/07/16 11:18:25;;;;;;;;;;;;;;;;;;5011808;28;19925;-65
2023/07/16 11:20:51;;;;;;;;;;;;;;;;;;5011691;28;20334;-65
2023/07/16 11:23:17;;;;;;;;;;;;;;;;;;5011774;28;19960;-65
2023/07/16 11:25:43;;;;;;;;;;;;;;;;;;5010275;28;19956;-65
2023/07/16 11:28:09;;;;;;;;;;;;;;;;;;5010279;28;19926;-65
2023/07/16 11:30:34;;;;;;;;;;;;;;;;;;5011585;28;19932;-65
2023/07/16 11:33:00;;;;;;;;;;;;;;;;;;5011698;28;19926;-65
2023/07/16 11:35:26;;;;;;;;;;;;;;;;;;5011981;28;19928;-65
2023/07/16 11:37:52;;;;;;;;;;;;;;;;;;5015017;28;20438;-65
2023/07/16 11:40:18;;;;;;;;;;;;;;;;;;5015189;28;19932;-65
2023/07/16 11:42:44;;;;;;;;;;;;;;;;;;5015067;28;19925;-65
2023/07/16 11:45:10;;;;;;;;;;;;;;;;;;5014981;28;19965;-64
2023/07/16 11:47:36;;;;;;;;;;;;;;;;;;5013833;28;19921;-64
2023/07/16 11:50:02;;;;;;;;;;;;;;;;;;5015149;28;19976;-64
2023/07/16 11:52:27;;;;;;;;;;;;;;;;;;5013586;28;20348;-64
2023/07/16 11:54:53;;;;;;;;;;;;;;;;;;5014877;28;19921;-64
2023/07/16 11:57:19;;;;;;;;;;;;;;;;;;5013443;28;19957;-64
2023/07/16 11:59:45;;;;;;;;;;;;;;;;;;5014766;28;19926;-65
2023/07/16 12:02:11;;;;;;;;;;;;;;;;;;5014912;28;19929;-65
2023/07/16 12:04:37;;;;;;;;;;;;;;;;;;5014904;28;19921;-64
2023/07/16 12:07:03;;;;;;;;;;;;;;;;;;5014736;28;20761;-65
2023/07/16 12:09:29;;;;;;;;;;;;;;;;;;5014729;28;19926;-65
2023/07/16 12:11:55;;;;;;;;;;;;;;;;;;5014462;28;20236;-65
2023/07/16 12:14:20;;;;;;;;;;;;;;;;;;5014552;28;20000;-65
2023/07/16 12:16:46;;;;;;;;;;;;;;;;;;5014340;28;19925;-65
2023/07/16 12:19:12;;;;;;;;;;;;;;;;;;5014631;28;19933;-65
2023/07/16 12:21:38;;;;;;;;;;;;;;;;;;5014424;28;19931;-64
2023/07/16 12:24:04;;;;;;;;;;;;;;;;;;5014397;28;19929;-65
2023/07/16 12:26:30;;;;;;;;;;;;;;;;;;5014357;28;19921;-65
2023/07/16 12:28:56;;;;;;;;;;;;;;;;;;5014248;28;19929;-65
2023/07/16 12:31:22;;;;;;;;;;;;;;;;;;5014388;28;19948;-65
2023/07/16 12:33:48;;;;;;;;;;;;;;;;;;5014285;28;19956;-65
2023/07/16 12:36:13;;;;;;;;;;;;;;;;;;5014215;28;19931;-65
2023/07/16 12:38:39;;;;;;;;;;;;;;;;;;5014221;28;19930;-65
2023/07/16 12:41:05;;;;;;;;;;;;;;;;;;5012781;28;20330;-64
2023/07/16 12:43:33;;;;;;;;;;;;;;;;;;5014015;28;19925;-65
2023/07/16 12:45:59;;;;;;;;;;;;;;;;;;5013941;28;20379;-65
2023/07/16 12:48:25;;;;;;;;;;;;;;;;;;5012221;28;19922;-65
2023/07/16 12:50:51;;;;;;;;;;;;;;;;;;5013156;28;19929;-65
2023/07/16 12:53:17;;;;;;;;;;;;;;;;;;5013385;28;20307;-65
2023/07/16 12:55:43;;;;;;;;;;;;;;;;;;5013042;28;19997;-65
2023/07/16 12:58:09;;;;;;;;;;;;;;;;;;5012715;28;19925;-65
2023/07/16 13:00:35;;;;;;;;;;;;;;;;;;5013592;28;19931;-65
2023/07/16 13:03:01;;;;;;;;;;;;;;;;;;5013623;28;19926;-65
2023/07/16 13:05:27;;;;;;;;;;;;;;;;;;5013530;28;19921;-65
2023/07/16 13:07:52;;;;;;;;;;;;;;;;;;5013435;28;19929;-65
2023/07/16 13:10:18;;;;;;;;;;;;;;;;;;5013252;28;20290;-65
2023/07/16 13:12:44;;;;;;;;;;;;;;;;;;4995711;28;19922;-65
2023/07/16 13:15:11;;;;;;;;;;;;;;;;;;5013485;28;19921;-65
2023/07/16 13:17:37;;;;;;;;;;;;;;;;;;5013242;28;19921;-65
2023/07/16 13:20:03;;;;;;;;;;;;;;;;;;5013239;28;19977;-65
2023/07/16 13:22:29;;;;;;;;;;;;;;;;;;5013169;28;19922;-65
2023/07/16 13:24:55;;;;;;;;;;;;;;;;;;5013167;28;19976;-65
2023/07/16 13:27:21;;;;;;;;;;;;;;;;;;5012923;28;20515;-65
2023/07/16 13:29:47;;;;;;;;;;;;;;;;;;5013212;28;19967;-65
2023/07/16 13:32:12;;;;;;;;;;;;;;;;;;5011546;28;20012;-65
2023/07/16 13:34:38;;;;;;;;;;;;;;;;;;5013027;28;19928;-65
2023/07/16 13:37:04;;;;;;;;;;;;;;;;;;5012580;28;19933;-65
2023/07/16 13:39:30;;;;;;;;;;;;;;;;;;5012899;28;20410;-65
2023/07/16 13:41:56;;;;;;;;;;;;;;;;;;5013159;28;19922;-65
2023/07/16 13:44:22;;;;;;;;;;;;;;;;;;5012899;28;20324;-65
2023/07/16 13:46:48;;;;;;;;;;;;;;;;;;5012919;28;19925;-65
2023/07/16 13:49:14;;;;;;;;;;;;;;;;;;5012799;28;19975;-65
2023/07/16 13:51:40;;;;;;;;;;;;;;;;;;5005971;28;19922;-65
2023/07/16 13:54:05;;;;;;;;;;;;;;;;;;4992940;28;20378;-65
2023/07/16 13:56:31;;;;;;;;;;;;;;;;;;4993146;28;19937;-65
2023/07/16 13:58:57;;;;;;;;;;;;;;;;;;4992798;28;19980;-65
2023/07/16 14:01:23;;;;;;;;;;;;;;;;;;4993130;28;20004;-65
2023/07/16 14:03:49;;;;;;;;;;;;;;;;;;4992953;28;19922;-65
2023/07/16 14:06:15;;;;;;;;;;;;;;;;;;4992955;28;20394;-65
2023/07/16 14:08:41;;;;;;;;;;;;;;;;;;4991435;28;19976;-65
2023/07/16 14:11:07;;;;;;;;;;;;;;;;;;4991509;28;19928;-65
2023/07/16 14:13:33;;;;;;;;;;;;;;;;;;4992864;28;19925;-65
2023/07/16 14:15:58;;;;;;;;;;;;;;;;;;4992932;28;19933;-65
2023/07/16 14:18:24;;;;;;;;;;;;;;;;;;4992698;28;19926;-65
2023/07/16 14:20:50;;;;;;;;;;;;;;;;;;5007794;28;20016;-64
2023/07/16 14:23:16;;;;;;;;;;;;;;;;;;4992510;28;20326;-65
2023/07/16 14:25:42;;;;;;;;;;;;;;;;;;4992616;28;19922;-65
2023/07/16 14:28:08;;;;;;;;;;;;;;;;;;4992708;28;19949;-65
2023/07/16 14:30:34;;;;;;;;;;;;;;;;;;4992708;28;20544;-65
2023/07/16 14:33:01;;;;;;;;;;;;;;;;;;4992452;28;19922;-65
2023/07/16 14:35:27;;;;;;;;;;;;;;;;;;4992649;28;19930;-65
2023/07/16 14:37:53;;;;;;;;;;;;;;;;;;4992231;28;20461;-65
2023/07/16 14:40:19;;;;;;;;;;;;;;;;;;4992345;28;19980;-64
2023/07/16 14:42:45;;;;;;;;;;;;;;;;;;4992599;28;19926;-65
2023/07/16 14:45:11;;;;;;;;;;;;;;;;;;4992467;28;19932;-65
2023/07/16 14:47:37;;;;;;;;;;;;;;;;;;4992037;28;19922;-65
2023/07/16 14:50:03;;;;;;;;;;;;;;;;;;4991857;28;19926;-65
2023/07/16 14:52:29;;;;;;;;;;;;;;;;;;4991772;28;19981;-65
2023/07/16 14:54:55;;;;;;;;;;;;;;;;;;4991544;28;19922;-65
2023/07/16 14:57:21;;;;;;;;;;;;;;;;;;4990130;28;19933;-65
2023/07/16 14:59:47;;;;;;;;;;;;;;;;;;4991813;28;19933;-65
2023/07/16 15:02:12;;;;;;;;;;;;;;;;;;4992157;28;19948;-65
2023/07/16 15:04:38;;;;;;;;;;;;;;;;;;5007352;28;19929;-65
2023/07/16 15:07:04;;;;;;;;;;;;;;;;;;4992122;28;20012;-65
2023/07/16 15:09:30;;;;;;;;;;;;;;;;;;4991999;28;19932;-65
2023/07/16 15:11:56;;;;;;;;;;;;;;;;;;4995169;28;20020;-65
2023/07/16 15:14:22;;;;;;;;;;;;;;;;;;4994704;28;19981;-65
2023/07/16 15:16:48;;;;;;;;;;;;;;;;;;4995973;28;19967;-65
2023/07/16 15:19:16;;;;;;;;;;;;;;;;;;4995929;28;19926;-65
2023/07/16 15:21:42;;;;;;;;;;;;;;;;;;4995813;28;19933;-65
2023/07/16 15:24:08;;;;;;;;;;;;;;;;;;4995979;28;19926;-65
2023/07/16 15:26:34;;;;;;;;;;;;;;;;;;4995919;28;19922;-65
2023/07/16 15:29:00;;;;;;;;;;;;;;;;;;4995845;28;19922;-65
2023/07/16 15:31:29;;;;;;;;;;;;;;;;;;4994414;28;19930;-65
2023/07/16 15:33:55;;;;;;;;;;;;;;;;;;4995566;28;19933;-65
2023/07/16 15:36:21;;;;;;;;;;;;;;;;;;4995358;28;19929;-64
2023/07/16 15:38:46;;;;;;;;;;;;;;;;;;4995679;28;20395;-65
2023/07/16 15:41:12;;;;;;;;;;;;;;;;;;4994210;28;19979;-65
2023/07/16 15:43:38;;;;;;;;;;;;;;;;;;4995662;28;19965;-65
2023/07/16 15:46:04;;;;;;;;;;;;;;;;;;4995510;28;19926;-65
2023/07/16 15:48:30;;;;;;;;;;;;;;;;;;4995403;28;19922;-64
2023/07/16 15:50:56;;;;;;;;;;;;;;;;;;4995289;28;20403;-64
2023/07/16 15:53:22;;;;;;;;;;;;;;;;;;4995639;28;19930;-65
2023/07/16 15:55:48;;;;;;;;;;;;;;;;;;4993669;28;20009;-65
2023/07/16 15:58:14;;;;;;;;;;;;;;;;;;4995180;28;20024;-65
2023/07/16 16:00:40;;;;;;;;;;;;;;;;;;4995169;28;19925;-65
2023/07/16 16:03:06;;;;;;;;;;;;;;;;;;4994175;28;20029;-65
2023/07/16 16:05:32;;;;;;;;;;;;;;;;;;4995057;28;19926;-65
2023/07/16 16:07:58;;;;;;;;;;;;;;;;;;4993764;28;19926;-65
2023/07/16 16:10:24;;;;;;;;;;;;;;;;;;4993645;28;20394;-65
2023/07/16 16:12:50;;;;;;;;;;;;;;;;;;4995134;28;19922;-66
2023/07/16 16:15:16;;;;;;;;;;;;;;;;;;4994867;28;19949;-65
2023/07/16 16:17:42;;;;;;;;;;;;;;;;;;4994920;28;19929;-65
2023/07/16 16:20:08;;;;;;;;;;;;;;;;;;4994803;28;19929;-65
2023/07/16 16:22:34;;;;;;;;;;;;;;;;;;4994615;28;19928;-65
2023/07/16 16:25:02;;;;;;;;;;;;;;;;;;4994881;28;20028;-65
2023/07/16 16:27:28;;;;;;;;;;;;;;;;;;4994853;28;20025;-65
2023/07/16 16:29:55;;;;;;;;;;;;;;;;;;4994876;28;20025;-65
2023/07/16 16:32:21;;;;;;;;;;;;;;;;;;4994554;28;20360;-65
2023/07/16 16:34:46;;;;;;;;;;;;;;;;;;4993153;28;19928;-65
2023/07/16 16:37:12;;;;;;;;;;;;;;;;;;4994244;28;19930;-65